Cape Lisburne LRRS Airport Cape Lisburne US
ICAO: PALU
IATA:
Category: Medium
Scheduled Services:

Elevation: 16 ft
TransAlt. 18000 ft.

Airport Communications:
ANCHORAGE CNTR:119.65
KOTZEBUE RDO:122.3
CTAF/UNICOM:126.2

PALU Zoom In..

Runways:

(A) RW 08 length 4805 ft width 135 ft
---- / hdg 84

(B) RW 26 length 4805 ft width 135 ft
---- / hdg 264

Location; PALU
Day. 23 / Time. 09.55 Zulu
* Altimeter: 30.08
* Temperature: 10° c. 50°f.
* Wind from: 190° Speed 16 kn with Gusts up to 20 kn.
Dewpoint: 08° c.
Visibility: 10 Statute Miles.
Clouds: Few 1000 ft.
Clouds: Scattered 1000 ft.
Clouds: Broken 12000 ft.

PALU 230955Z AUTO 19016G20KT 10SM FEW010 SCT100 BKN120 10/08 A3008 RMK AO2 SHRAB0900E0927DZB0902E0911 SLP187 P0001 T00960076 $


Wind From 190°
Speed 16 kn.

 
 
jpsmedia.com for Web Design worldairports.se 2018   terms of use